createdAt,value
2022-12-22T00:01:54.334Z,4.90
2022-12-22T00:04:39.845Z,4.80
2022-12-22T00:07:25.425Z,4.90
2022-12-22T00:10:10.550Z,5.00
2022-12-22T00:12:55.675Z,4.90
2022-12-22T00:15:40.888Z,4.90
2022-12-22T00:18:32.406Z,4.90
2022-12-22T00:21:17.608Z,4.80
2022-12-22T00:24:02.904Z,4.80
2022-12-22T00:26:49.225Z,4.80
2022-12-22T00:29:35.256Z,4.80
2022-12-22T00:32:21.436Z,4.80
2022-12-22T00:35:06.444Z,4.70
2022-12-22T00:37:55.986Z,4.60
2022-12-22T00:40:44.474Z,4.60
2022-12-22T00:43:29.994Z,4.70
2022-12-22T00:46:15.583Z,4.70
2022-12-22T00:49:01.365Z,4.70
2022-12-22T00:51:46.565Z,4.70
2022-12-22T00:54:32.510Z,4.60
2022-12-22T00:57:20.637Z,4.50
2022-12-22T01:00:07.435Z,4.50
2022-12-22T01:02:53.134Z,4.50
2022-12-22T01:05:38.570Z,4.40
2022-12-22T01:08:23.697Z,4.30
2022-12-22T01:11:08.642Z,4.40
2022-12-22T01:13:54.007Z,4.50
2022-12-22T01:16:39.094Z,4.70
2022-12-22T01:19:24.373Z,4.70
2022-12-22T01:22:09.806Z,4.60
2022-12-22T01:24:54.876Z,4.50
2022-12-22T01:27:40.178Z,4.50
2022-12-22T01:30:25.815Z,4.60
2022-12-22T01:33:11.572Z,4.50
2022-12-22T01:35:57.134Z,4.50
2022-12-22T01:38:42.215Z,4.60
2022-12-22T01:41:29.402Z,4.50
2022-12-22T01:44:14.640Z,4.50
2022-12-22T01:47:03.691Z,4.60
2022-12-22T01:49:52.167Z,4.50
2022-12-22T01:52:38.983Z,4.60
2022-12-22T01:55:26.263Z,4.50
2022-12-22T01:58:11.804Z,4.60
2022-12-22T02:00:57.791Z,4.60
2022-12-22T02:03:42.998Z,4.70
2022-12-22T02:06:47.107Z,4.70
2022-12-22T02:09:51.138Z,4.70
2022-12-22T02:12:46.000Z,4.70
2022-12-22T02:15:31.128Z,4.60
2022-12-22T02:18:29.701Z,4.60
2022-12-22T02:21:19.962Z,4.60
2022-12-22T02:24:05.274Z,4.60
2022-12-22T02:26:52.863Z,4.60
2022-12-22T02:29:39.433Z,4.60
2022-12-22T02:32:25.529Z,4.70
2022-12-22T02:35:10.561Z,4.80
2022-12-22T02:38:06.913Z,4.90
2022-12-22T02:41:12.175Z,4.80
2022-12-22T02:44:06.904Z,4.80
2022-12-22T02:46:53.418Z,4.80
2022-12-22T02:49:44.459Z,4.90
2022-12-22T02:52:35.545Z,4.90
2022-12-22T02:55:21.925Z,4.80
2022-12-22T02:58:10.050Z,4.80
2022-12-22T03:00:55.729Z,4.80
2022-12-22T03:03:41.604Z,4.80
2022-12-22T03:06:27.009Z,4.70
2022-12-22T03:09:12.058Z,4.70
2022-12-22T03:11:57.159Z,4.70
2022-12-22T03:14:42.478Z,4.70
2022-12-22T03:17:27.606Z,4.70
2022-12-22T03:20:13.050Z,4.90
2022-12-22T03:22:58.142Z,5.10
2022-12-22T03:25:43.490Z,5.20
2022-12-22T03:28:10.113Z,5.40
2022-12-22T03:30:37.100Z,5.50
2022-12-22T03:33:04.007Z,5.70
2022-12-22T03:35:30.665Z,5.60
2022-12-22T03:37:57.266Z,5.60
2022-12-22T03:40:23.927Z,5.70
2022-12-22T03:43:09.299Z,5.60
2022-12-22T03:45:54.507Z,5.60
2022-12-22T03:48:21.088Z,5.60
2022-12-22T03:50:47.816Z,5.60
2022-12-22T03:53:14.425Z,5.50
2022-12-22T03:55:41.035Z,5.40
2022-12-22T03:58:07.647Z,5.40
2022-12-22T04:00:34.249Z,5.40
2022-12-22T04:03:00.984Z,5.50
2022-12-22T04:05:27.755Z,5.40
2022-12-22T04:07:54.341Z,5.40
2022-12-22T04:10:39.942Z,5.30
2022-12-22T04:13:06.555Z,5.30
2022-12-22T04:15:33.135Z,5.30
2022-12-22T04:17:59.771Z,5.30
2022-12-22T04:20:27.095Z,5.30
2022-12-22T04:22:54.115Z,5.30
2022-12-22T04:25:21.048Z,5.30
2022-12-22T04:27:47.753Z,5.30
2022-12-22T04:30:14.431Z,5.30
2022-12-22T04:32:41.128Z,5.30
2022-12-22T04:35:08.394Z,5.40
2022-12-22T04:37:34.989Z,5.40
2022-12-22T04:40:01.674Z,5.30
2022-12-22T04:42:28.507Z,5.30
2022-12-22T04:44:55.149Z,5.30
2022-12-22T04:47:21.737Z,5.30
2022-12-22T04:49:48.360Z,5.30
2022-12-22T04:52:14.998Z,5.30
2022-12-22T04:54:41.603Z,5.30
2022-12-22T04:57:08.245Z,5.30
2022-12-22T04:59:34.879Z,5.40
2022-12-22T05:02:01.536Z,5.40
2022-12-22T05:04:28.300Z,5.40
2022-12-22T05:06:54.922Z,5.60
2022-12-22T05:09:21.505Z,5.60
2022-12-22T05:11:48.148Z,5.60
2022-12-22T05:14:14.927Z,5.60
2022-12-22T05:16:41.568Z,5.60
2022-12-22T05:19:08.183Z,5.50
2022-12-22T05:21:34.843Z,5.50
2022-12-22T05:24:01.480Z,5.40
2022-12-22T05:26:28.082Z,5.40
2022-12-22T05:28:54.690Z,5.50
2022-12-22T05:31:22.637Z,5.50
2022-12-22T05:33:49.738Z,5.50
2022-12-22T05:36:16.631Z,5.50
2022-12-22T05:38:44.701Z,5.60
2022-12-22T05:41:11.529Z,5.60
2022-12-22T05:43:38.459Z,5.40
2022-12-22T05:46:06.309Z,5.30
2022-12-22T05:48:37.819Z,5.40
2022-12-22T05:51:05.255Z,5.50
2022-12-22T05:53:31.858Z,5.70
2022-12-22T05:55:58.513Z,5.60
2022-12-22T05:58:25.225Z,5.50
2022-12-22T06:00:51.935Z,5.50
2022-12-22T06:03:18.645Z,5.60
2022-12-22T06:05:45.289Z,5.60
2022-12-22T06:08:11.882Z,5.60
2022-12-22T06:10:38.479Z,5.60
2022-12-22T06:13:05.058Z,5.80
2022-12-22T06:15:31.791Z,5.80
2022-12-22T06:17:58.750Z,5.70
2022-12-22T06:20:25.384Z,5.70
2022-12-22T06:22:52.000Z,5.80
2022-12-22T06:25:19.138Z,5.80
2022-12-22T06:27:46.719Z,5.90
2022-12-22T06:30:13.873Z,6.00
2022-12-22T06:32:40.551Z,6.00
2022-12-22T06:35:08.134Z,6.10
2022-12-22T06:37:34.783Z,6.00
2022-12-22T06:40:01.537Z,6.00
2022-12-22T06:42:47.164Z,6.00
2022-12-22T06:45:13.883Z,6.00
2022-12-22T06:47:40.518Z,5.90
2022-12-22T06:50:07.481Z,5.80
2022-12-22T06:52:34.157Z,5.90
2022-12-22T06:55:02.185Z,6.00
2022-12-22T06:57:29.001Z,5.90
2022-12-22T06:59:57.865Z,5.90
2022-12-22T07:02:25.280Z,5.90
2022-12-22T07:04:52.178Z,5.80
2022-12-22T07:07:18.799Z,5.90
2022-12-22T07:09:45.394Z,6.10
2022-12-22T07:12:13.138Z,6.30
2022-12-22T07:14:39.715Z,6.20
2022-12-22T07:17:06.317Z,6.20
2022-12-22T07:19:32.928Z,6.40
2022-12-22T07:21:59.579Z,6.50
2022-12-22T07:24:26.714Z,6.50
2022-12-22T07:26:53.396Z,6.30
2022-12-22T07:29:20.101Z,6.40
2022-12-22T07:31:46.850Z,6.80
2022-12-22T07:34:13.556Z,6.90
2022-12-22T07:36:40.174Z,6.70
2022-12-22T07:39:08.690Z,6.60
2022-12-22T07:41:53.821Z,6.60
2022-12-22T07:44:20.449Z,6.50
2022-12-22T07:46:47.373Z,6.70
2022-12-22T07:49:40.085Z,6.60
2022-12-22T07:52:06.683Z,6.60
2022-12-22T07:54:39.601Z,6.60
2022-12-22T07:57:08.139Z,6.60
2022-12-22T07:59:34.760Z,6.40
2022-12-22T08:02:01.439Z,6.20
2022-12-22T08:04:28.301Z,6.00
2022-12-22T08:06:54.972Z,6.10
2022-12-22T08:09:22.897Z,6.00
2022-12-22T08:11:50.109Z,6.10
2022-12-22T08:14:16.748Z,6.30
2022-12-22T08:16:43.405Z,6.30
2022-12-22T08:19:10.142Z,6.50
2022-12-22T08:21:36.776Z,6.70
2022-12-22T08:24:03.435Z,6.70
2022-12-22T08:26:41.669Z,6.70
2022-12-22T08:29:34.808Z,6.60
2022-12-22T08:32:01.951Z,6.90
2022-12-22T08:34:28.761Z,7.20
2022-12-22T08:36:56.631Z,7.30
2022-12-22T08:39:25.636Z,7.60
2022-12-22T08:42:40.328Z,7.90
2022-12-22T08:45:09.193Z,8.00
2022-12-22T08:47:35.854Z,8.50
2022-12-22T08:50:03.233Z,8.70
2022-12-22T08:52:30.434Z,8.70
2022-12-22T08:54:57.045Z,8.60
2022-12-22T08:57:23.644Z,8.60
2022-12-22T08:59:50.257Z,8.70
2022-12-22T09:02:17.136Z,8.90
2022-12-22T09:04:43.900Z,9.10
2022-12-22T09:07:11.439Z,9.10
2022-12-22T09:09:38.038Z,9.00
2022-12-22T09:12:04.857Z,9.00
2022-12-22T09:14:32.763Z,9.00
2022-12-22T09:16:59.627Z,9.00
2022-12-22T09:19:26.291Z,8.80
2022-12-22T09:21:52.934Z,8.80
2022-12-22T09:24:19.562Z,8.70
2022-12-22T09:26:46.497Z,8.60
2022-12-22T09:29:15.321Z,8.60
2022-12-22T09:31:42.540Z,8.70
2022-12-22T09:34:13.469Z,8.80
2022-12-22T09:36:44.086Z,8.80
2022-12-22T09:39:11.083Z,8.80
2022-12-22T09:41:43.118Z,8.70
2022-12-22T09:44:12.889Z,8.70
2022-12-22T09:46:39.528Z,8.70
2022-12-22T09:49:07.084Z,8.80
2022-12-22T09:51:39.215Z,8.90
2022-12-22T09:54:05.824Z,8.80
2022-12-22T09:56:32.387Z,8.80
2022-12-22T09:59:00.349Z,9.00
2022-12-22T10:01:32.561Z,9.20
2022-12-22T10:04:18.284Z,9.10
2022-12-22T10:06:54.149Z,9.30
2022-12-22T10:09:48.860Z,9.40
2022-12-22T10:12:14.560Z,9.60
2022-12-22T10:14:45.675Z,9.70
2022-12-22T10:17:20.715Z,9.70
2022-12-22T10:19:48.828Z,9.80
2022-12-22T10:22:33.104Z,9.80
2022-12-22T10:25:04.383Z,9.70
2022-12-22T10:27:32.476Z,9.60
2022-12-22T10:30:17.978Z,9.80
2022-12-22T10:33:00.235Z,9.90
2022-12-22T10:35:26.865Z,9.80
2022-12-22T10:37:53.480Z,9.80
2022-12-22T10:40:21.952Z,9.90
2022-12-22T10:42:53.630Z,9.80
2022-12-22T10:45:21.553Z,9.80
2022-12-22T10:47:49.556Z,9.70
2022-12-22T10:50:16.461Z,9.80
2022-12-22T10:52:49.460Z,9.80
2022-12-22T10:55:18.846Z,9.90
2022-12-22T10:57:45.753Z,9.80
2022-12-22T11:00:23.556Z,9.70
2022-12-22T11:02:54.445Z,10.00
2022-12-22T11:05:21.589Z,9.90
2022-12-22T11:07:48.496Z,10.10
2022-12-22T11:10:15.126Z,10.10
2022-12-22T11:12:51.373Z,10.20
2022-12-22T11:15:24.844Z,10.30
2022-12-22T11:17:54.538Z,10.40
2022-12-22T11:20:40.025Z,10.30
2022-12-22T11:23:09.843Z,10.10
2022-12-22T11:25:49.517Z,9.80
2022-12-22T11:28:16.120Z,9.60
2022-12-22T11:30:57.038Z,9.50
2022-12-22T11:33:33.900Z,9.50
2022-12-22T11:36:01.816Z,9.40
2022-12-22T11:38:37.490Z,9.40
2022-12-22T11:41:14.348Z,9.40
2022-12-22T11:43:40.959Z,9.40
2022-12-22T11:46:10.647Z,9.30
2022-12-22T11:48:56.019Z,9.10
2022-12-22T11:51:39.661Z,9.00
2022-12-22T11:54:15.485Z,9.10
2022-12-22T11:56:44.261Z,8.90
2022-12-22T11:59:29.220Z,9.00
2022-12-22T12:02:02.175Z,9.00
2022-12-22T12:04:37.870Z,9.10
2022-12-22T12:07:25.951Z,9.00
2022-12-22T12:10:11.999Z,9.20
2022-12-22T12:12:57.524Z,9.40
2022-12-22T12:15:28.570Z,9.40
2022-12-22T12:18:01.127Z,9.50
2022-12-22T12:20:30.574Z,9.50
2022-12-22T12:23:00.261Z,9.40
2022-12-22T12:25:41.783Z,9.50
2022-12-22T12:28:27.209Z,9.60
2022-12-22T12:30:55.648Z,9.60
2022-12-22T12:33:27.674Z,9.50
2022-12-22T12:36:00.982Z,9.40
2022-12-22T12:39:07.534Z,9.70
2022-12-22T12:41:38.090Z,9.60
2022-12-22T12:44:05.787Z,9.70
2022-12-22T12:46:44.724Z,9.70
2022-12-22T12:49:30.057Z,9.80
2022-12-22T12:51:56.711Z,9.80
2022-12-22T12:54:29.351Z,9.70
2022-12-22T12:56:59.777Z,9.60
2022-12-22T12:59:41.322Z,9.50
2022-12-22T13:02:40.717Z,9.60
2022-12-22T13:05:13.753Z,9.80
2022-12-22T13:07:59.101Z,9.90
2022-12-22T13:10:25.821Z,9.90
2022-12-22T13:12:53.983Z,10.00
2022-12-22T13:15:29.503Z,10.10
2022-12-22T13:17:56.514Z,10.00
2022-12-22T13:20:28.089Z,10.00
2022-12-22T13:22:55.654Z,10.00
2022-12-22T13:25:24.191Z,9.90
2022-12-22T13:27:50.866Z,10.00
2022-12-22T13:30:18.631Z,9.90
2022-12-22T13:32:47.114Z,9.90
2022-12-22T13:35:31.013Z,9.90
2022-12-22T13:37:58.579Z,9.80
2022-12-22T13:40:32.032Z,9.80
2022-12-22T13:43:03.897Z,9.70
2022-12-22T13:45:35.929Z,9.80
2022-12-22T13:48:05.771Z,9.80
2022-12-22T13:50:33.987Z,9.80
2022-12-22T13:53:01.058Z,9.70
2022-12-22T13:55:32.067Z,9.70
2022-12-22T13:58:05.241Z,9.80
2022-12-22T14:00:31.958Z,9.80
2022-12-22T14:02:58.694Z,9.90
2022-12-22T14:05:30.135Z,9.90
2022-12-22T14:07:57.755Z,9.90
2022-12-22T14:10:35.705Z,9.90
2022-12-22T14:13:05.227Z,9.90
2022-12-22T14:15:31.911Z,9.80
2022-12-22T14:17:58.589Z,9.90
2022-12-22T14:20:27.408Z,9.90
2022-12-22T14:23:06.230Z,10.00
2022-12-22T14:25:37.415Z,10.10
2022-12-22T14:28:06.454Z,10.10
2022-12-22T14:30:39.179Z,10.10
2022-12-22T14:33:27.229Z,10.00
2022-12-22T14:36:15.703Z,10.00
2022-12-22T14:38:47.560Z,10.10
2022-12-22T14:41:43.167Z,10.10
2022-12-22T14:44:23.925Z,9.90
2022-12-22T14:47:06.448Z,9.90
2022-12-22T14:49:33.703Z,10.00
2022-12-22T14:52:06.088Z,9.90
2022-12-22T14:54:32.817Z,9.90
2022-12-22T14:57:03.307Z,9.80
2022-12-22T14:59:31.199Z,9.80
2022-12-22T15:01:57.974Z,9.70
2022-12-22T15:04:24.905Z,9.80
2022-12-22T15:06:51.664Z,9.70
2022-12-22T15:09:33.326Z,9.60
2022-12-22T15:12:06.966Z,9.60
2022-12-22T15:14:38.858Z,9.70
2022-12-22T15:17:06.520Z,9.70
2022-12-22T15:19:35.237Z,9.70
2022-12-22T15:22:02.110Z,9.70
2022-12-22T15:24:29.314Z,9.60
2022-12-22T15:26:56.297Z,9.70
2022-12-22T15:29:22.930Z,9.70
2022-12-22T15:31:49.710Z,9.70
2022-12-22T15:34:19.375Z,9.60
2022-12-22T15:36:46.102Z,9.60
2022-12-22T15:39:13.893Z,9.70
2022-12-22T15:41:40.932Z,9.70
2022-12-22T15:44:07.608Z,9.80
2022-12-22T15:46:34.352Z,9.70
2022-12-22T15:49:01.078Z,9.60
2022-12-22T15:51:29.024Z,9.60
2022-12-22T15:53:56.660Z,9.70
2022-12-22T15:56:24.426Z,9.60
2022-12-22T15:58:51.172Z,9.50
2022-12-22T16:01:17.937Z,9.50
2022-12-22T16:03:45.117Z,9.50
2022-12-22T16:06:16.217Z,9.60
2022-12-22T16:08:49.309Z,9.60
2022-12-22T16:11:16.151Z,9.60
2022-12-22T16:13:42.790Z,9.60
2022-12-22T16:16:09.517Z,9.40
2022-12-22T16:18:36.134Z,9.40
2022-12-22T16:21:13.023Z,9.40
2022-12-22T16:23:40.813Z,9.40
2022-12-22T16:26:07.447Z,9.50
2022-12-22T16:28:34.139Z,9.50
2022-12-22T16:31:01.301Z,9.50
2022-12-22T16:33:28.023Z,9.40
2022-12-22T16:35:55.169Z,9.40
2022-12-22T16:38:21.797Z,9.50
2022-12-22T16:40:50.380Z,9.40
2022-12-22T16:46:12.600Z,9.40
2022-12-22T16:48:41.184Z,9.40
2022-12-22T16:51:12.261Z,9.50
2022-12-22T16:53:38.941Z,9.40
2022-12-22T16:56:05.638Z,9.40
2022-12-22T16:58:32.254Z,9.40
2022-12-22T17:00:58.881Z,9.40
2022-12-22T17:03:26.668Z,9.30
2022-12-22T17:05:55.020Z,9.20
2022-12-22T17:08:30.389Z,9.20
2022-12-22T17:10:58.131Z,9.30
2022-12-22T17:13:25.255Z,9.30
2022-12-22T17:15:51.919Z,9.40
2022-12-22T17:18:19.880Z,9.40
2022-12-22T17:20:47.600Z,9.30
2022-12-22T17:23:24.381Z,9.30
2022-12-22T17:25:50.989Z,9.20
2022-12-22T17:28:17.728Z,9.20
2022-12-22T17:30:44.333Z,9.20
2022-12-22T17:33:17.628Z,9.10
2022-12-22T17:35:45.596Z,9.20
2022-12-22T17:38:13.774Z,9.20
2022-12-22T17:40:40.737Z,9.20
2022-12-22T17:43:11.235Z,9.20
2022-12-22T17:45:37.997Z,9.30
2022-12-22T17:48:04.798Z,9.20
2022-12-22T17:50:31.408Z,9.10
2022-12-22T17:52:58.060Z,9.10
2022-12-22T17:56:05.908Z,9.00
2022-12-22T17:58:13.707Z,9.20
2022-12-22T18:00:40.308Z,9.20
2022-12-22T18:03:08.574Z,9.10
2022-12-22T18:05:38.894Z,9.20
2022-12-22T18:08:05.635Z,9.20
2022-12-22T18:10:33.675Z,9.10
2022-12-22T18:13:01.230Z,9.00
2022-12-22T18:15:29.179Z,9.00
2022-12-22T18:17:56.121Z,9.10
2022-12-22T18:20:24.451Z,9.10
2022-12-22T18:22:53.186Z,9.10
2022-12-22T18:25:21.767Z,9.10
2022-12-22T18:27:48.863Z,9.10
2022-12-22T18:30:19.849Z,9.00
2022-12-22T18:32:50.404Z,9.00
2022-12-22T18:35:17.747Z,9.00
2022-12-22T18:37:44.413Z,8.90
2022-12-22T18:40:28.260Z,8.90
2022-12-22T18:42:56.038Z,8.80
2022-12-22T18:45:23.608Z,8.80
2022-12-22T18:47:50.288Z,8.80
2022-12-22T18:50:18.591Z,8.80
2022-12-22T18:52:45.486Z,8.70
2022-12-22T18:55:15.607Z,8.60
2022-12-22T18:57:45.535Z,8.70
2022-12-22T19:00:13.947Z,8.50
2022-12-22T19:02:41.000Z,8.40
2022-12-22T19:05:19.056Z,8.30
2022-12-22T19:07:45.928Z,8.10
2022-12-22T19:10:22.617Z,8.30
2022-12-22T19:12:50.426Z,8.30
2022-12-22T19:15:22.393Z,8.40
2022-12-22T19:17:50.294Z,8.20
2022-12-22T19:20:18.020Z,8.30
2022-12-22T19:22:45.396Z,8.30
2022-12-22T19:25:13.186Z,8.30
2022-12-22T19:27:40.018Z,8.30
2022-12-22T19:30:07.248Z,8.20
2022-12-22T19:32:37.967Z,8.20
2022-12-22T19:35:09.447Z,8.30
2022-12-22T19:37:36.069Z,8.20
2022-12-22T19:40:02.746Z,8.20
2022-12-22T19:42:29.374Z,8.30
2022-12-22T19:44:56.157Z,8.30
2022-12-22T19:47:29.409Z,8.20
2022-12-22T19:49:56.306Z,8.20
2022-12-22T19:52:22.945Z,8.30
2022-12-22T19:54:49.583Z,8.30
2022-12-22T19:57:18.600Z,8.40
2022-12-22T19:59:46.121Z,8.50
2022-12-22T20:02:24.628Z,8.50
2022-12-22T20:04:51.482Z,8.50
2022-12-22T20:07:22.453Z,8.60
2022-12-22T20:09:49.044Z,8.60
2022-12-22T20:12:18.736Z,8.60
2022-12-22T20:14:45.355Z,8.60
2022-12-22T20:17:12.012Z,8.60
2022-12-22T20:19:38.713Z,8.70
2022-12-22T20:22:25.829Z,8.80
2022-12-22T20:24:54.395Z,8.80
2022-12-22T20:27:23.089Z,8.80
2022-12-22T20:29:49.690Z,8.80
2022-12-22T20:32:19.651Z,8.90
2022-12-22T20:34:49.093Z,8.80
2022-12-22T20:37:16.297Z,8.90
2022-12-22T20:39:42.941Z,8.90
2022-12-22T20:42:20.055Z,8.90
2022-12-22T20:45:02.108Z,9.10
2022-12-22T20:47:31.581Z,9.00
2022-12-22T20:49:58.223Z,8.90
2022-12-22T20:52:25.329Z,9.00
2022-12-22T20:54:51.958Z,9.10
2022-12-22T20:57:26.267Z,9.00
2022-12-22T20:59:56.365Z,8.90
2022-12-22T21:02:25.271Z,8.90
2022-12-22T21:04:52.000Z,8.90
2022-12-22T21:07:18.620Z,8.90
2022-12-22T21:09:45.248Z,8.80
2022-12-22T21:12:11.822Z,8.90
2022-12-22T21:14:38.446Z,8.80
2022-12-22T21:17:05.103Z,9.00
2022-12-22T21:19:31.786Z,8.90
2022-12-22T21:21:58.447Z,8.90
2022-12-22T21:24:25.048Z,9.10
2022-12-22T21:26:53.034Z,9.10
2022-12-22T21:29:21.424Z,9.10
2022-12-22T21:31:48.043Z,9.00
2022-12-22T21:34:14.762Z,9.00
2022-12-22T21:36:43.464Z,9.10
2022-12-22T21:39:16.665Z,9.00
2022-12-22T21:42:01.643Z,8.90
2022-12-22T21:44:29.124Z,8.90
2022-12-22T21:46:56.126Z,9.00
2022-12-22T21:49:27.340Z,8.90
2022-12-22T21:51:54.313Z,9.00
2022-12-22T21:54:22.080Z,8.90
2022-12-22T21:56:49.227Z,8.90
2022-12-22T21:59:16.121Z,8.90
2022-12-22T22:01:43.249Z,9.00
2022-12-22T22:04:10.249Z,9.00
2022-12-22T22:06:37.138Z,8.90
2022-12-22T22:09:05.131Z,8.90
2022-12-22T22:11:31.835Z,8.90
2022-12-22T22:13:58.511Z,8.80
2022-12-22T22:16:25.256Z,8.80
2022-12-22T22:18:51.887Z,8.80
2022-12-22T22:21:18.552Z,8.70
2022-12-22T22:23:45.134Z,8.60
2022-12-22T22:26:11.747Z,8.60
2022-12-22T22:28:38.447Z,8.60
2022-12-22T22:31:09.364Z,8.50
2022-12-22T22:33:35.973Z,8.50
2022-12-22T22:36:09.362Z,8.50
2022-12-22T22:38:36.298Z,8.50
2022-12-22T22:41:03.095Z,8.50
2022-12-22T22:43:29.902Z,8.50
2022-12-22T22:45:56.584Z,8.50
2022-12-22T22:48:23.727Z,8.40
2022-12-22T22:50:50.486Z,8.50
2022-12-22T22:53:17.165Z,8.60
2022-12-22T22:55:43.841Z,8.50
2022-12-22T22:58:11.473Z,8.50
2022-12-22T23:00:38.399Z,8.70
2022-12-22T23:03:05.581Z,8.60
2022-12-22T23:05:32.401Z,8.70
2022-12-22T23:07:59.091Z,8.70
2022-12-22T23:10:25.732Z,8.70
2022-12-22T23:12:53.440Z,8.70
2022-12-22T23:15:23.231Z,8.70
2022-12-22T23:17:50.795Z,8.50
2022-12-22T23:20:17.740Z,8.50
2022-12-22T23:22:44.353Z,8.40
2022-12-22T23:25:10.958Z,8.40
2022-12-22T23:27:37.564Z,8.20
2022-12-22T23:30:04.565Z,8.10
2022-12-22T23:32:31.219Z,8.10
2022-12-22T23:34:57.842Z,7.90
2022-12-22T23:37:24.442Z,7.80
2022-12-22T23:39:51.027Z,7.70
2022-12-22T23:42:17.664Z,7.60
2022-12-22T23:44:44.257Z,7.60
2022-12-22T23:47:10.907Z,7.60
2022-12-22T23:49:37.655Z,7.60
2022-12-22T23:52:04.351Z,7.60
2022-12-22T23:54:30.947Z,7.50
2022-12-22T23:56:57.932Z,7.50
2022-12-22T23:59:24.535Z,7.50
